sensor_id;sensor_type;location;lat;lon;timestamp;P1;durP1;ratioP1;P2;durP2;ratioP2
45039;SDS011;30778;53.574;7.770;2023-07-31T00:00:10;3.42;;;1.75;;
45039;SDS011;30778;53.574;7.770;2023-07-31T00:02:41;4.03;;;1.48;;
45039;SDS011;30778;53.574;7.770;2023-07-31T00:05:08;5.25;;;1.88;;
45039;SDS011;30778;53.574;7.770;2023-07-31T00:07:33;8.07;;;1.05;;
45039;SDS011;30778;53.574;7.770;2023-07-31T00:09:59;2.55;;;1.13;;
45039;SDS011;30778;53.574;7.770;2023-07-31T00:12:27;5.47;;;1.02;;
45039;SDS011;30778;53.574;7.770;2023-07-31T00:14:53;7.57;;;1.50;;
45039;SDS011;30778;53.574;7.770;2023-07-31T00:17:18;6.20;;;1.40;;
45039;SDS011;30778;53.574;7.770;2023-07-31T00:19:44;7.25;;;1.83;;
45039;SDS011;30778;53.574;7.770;2023-07-31T00:22:16;4.40;;;1.63;;
45039;SDS011;30778;53.574;7.770;2023-07-31T00:24:44;2.70;;;1.77;;
45039;SDS011;30778;53.574;7.770;2023-07-31T00:27:12;5.03;;;2.00;;
45039;SDS011;30778;53.574;7.770;2023-07-31T00:29:40;4.65;;;1.58;;
45039;SDS011;30778;53.574;7.770;2023-07-31T00:32:06;5.75;;;1.92;;
45039;SDS011;30778;53.574;7.770;2023-07-31T00:34:32;4.05;;;1.73;;
45039;SDS011;30778;53.574;7.770;2023-07-31T00:37:09;7.78;;;2.38;;
45039;SDS011;30778;53.574;7.770;2023-07-31T00:39:35;4.47;;;1.55;;
45039;SDS011;30778;53.574;7.770;2023-07-31T00:42:01;8.00;;;2.25;;
45039;SDS011;30778;53.574;7.770;2023-07-31T00:44:29;7.20;;;1.92;;
45039;SDS011;30778;53.574;7.770;2023-07-31T00:46:57;5.55;;;2.22;;
45039;SDS011;30778;53.574;7.770;2023-07-31T00:49:25;3.05;;;1.40;;
45039;SDS011;30778;53.574;7.770;2023-07-31T00:51:51;5.57;;;1.70;;
45039;SDS011;30778;53.574;7.770;2023-07-31T00:54:17;5.13;;;2.03;;
45039;SDS011;30778;53.574;7.770;2023-07-31T00:56:44;4.57;;;2.20;;
45039;SDS011;30778;53.574;7.770;2023-07-31T00:59:13;2.75;;;1.38;;
45039;SDS011;30778;53.574;7.770;2023-07-31T01:01:55;8.23;;;1.70;;
45039;SDS011;30778;53.574;7.770;2023-07-31T01:04:24;4.25;;;1.73;;
45039;SDS011;30778;53.574;7.770;2023-07-31T01:11:53;1.25;;;1.02;;
45039;SDS011;30778;53.574;7.770;2023-07-31T01:14:24;3.95;;;1.00;;
45039;SDS011;30778;53.574;7.770;2023-07-31T01:16:55;4.63;;;1.33;;
45039;SDS011;30778;53.574;7.770;2023-07-31T01:19:25;2.38;;;1.65;;
45039;SDS011;30778;53.574;7.770;2023-07-31T01:22:02;2.88;;;1.42;;
45039;SDS011;30778;53.574;7.770;2023-07-31T01:24:55;4.10;;;1.17;;
45039;SDS011;30778;53.574;7.770;2023-07-31T01:27:39;4.20;;;1.45;;
45039;SDS011;30778;53.574;7.770;2023-07-31T01:30:18;5.70;;;1.67;;
45039;SDS011;30778;53.574;7.770;2023-07-31T01:32:48;3.05;;;0.95;;
45039;SDS011;30778;53.574;7.770;2023-07-31T01:35:16;1.90;;;1.40;;
45039;SDS011;30778;53.574;7.770;2023-07-31T01:37:42;2.72;;;1.50;;
45039;SDS011;30778;53.574;7.770;2023-07-31T01:40:08;2.83;;;1.35;;
45039;SDS011;30778;53.574;7.770;2023-07-31T01:42:36;3.30;;;0.85;;
45039;SDS011;30778;53.574;7.770;2023-07-31T01:45:01;1.92;;;0.70;;
45039;SDS011;30778;53.574;7.770;2023-07-31T01:47:30;4.60;;;0.95;;
45039;SDS011;30778;53.574;7.770;2023-07-31T01:49:58;4.53;;;1.63;;
45039;SDS011;30778;53.574;7.770;2023-07-31T01:52:29;4.00;;;0.98;;
45039;SDS011;30778;53.574;7.770;2023-07-31T01:54:57;6.45;;;1.02;;
45039;SDS011;30778;53.574;7.770;2023-07-31T01:57:23;2.35;;;0.98;;
45039;SDS011;30778;53.574;7.770;2023-07-31T01:59:54;3.50;;;1.23;;
45039;SDS011;30778;53.574;7.770;2023-07-31T02:02:22;4.18;;;0.90;;
45039;SDS011;30778;53.574;7.770;2023-07-31T02:04:50;2.67;;;1.10;;
45039;SDS011;30778;53.574;7.770;2023-07-31T02:07:18;2.22;;;0.60;;
45039;SDS011;30778;53.574;7.770;2023-07-31T02:09:43;3.92;;;0.60;;
45039;SDS011;30778;53.574;7.770;2023-07-31T02:12:09;5.63;;;0.95;;
45039;SDS011;30778;53.574;7.770;2023-07-31T02:14:34;3.92;;;0.90;;
45039;SDS011;30778;53.574;7.770;2023-07-31T02:17:03;2.58;;;1.20;;
45039;SDS011;30778;53.574;7.770;2023-07-31T02:19:31;2.40;;;0.90;;
45039;SDS011;30778;53.574;7.770;2023-07-31T02:21:59;1.57;;;0.83;;
45039;SDS011;30778;53.574;7.770;2023-07-31T02:24:25;2.13;;;1.20;;
45039;SDS011;30778;53.574;7.770;2023-07-31T02:26:52;2.50;;;0.45;;
45039;SDS011;30778;53.574;7.770;2023-07-31T02:29:20;4.93;;;0.60;;
45039;SDS011;30778;53.574;7.770;2023-07-31T02:31:48;1.95;;;0.73;;
45039;SDS011;30778;53.574;7.770;2023-07-31T02:34:16;1.88;;;0.60;;
45039;SDS011;30778;53.574;7.770;2023-07-31T02:36:42;1.98;;;0.70;;
45039;SDS011;30778;53.574;7.770;2023-07-31T02:39:07;1.27;;;0.65;;
45039;SDS011;30778;53.574;7.770;2023-07-31T02:41:33;1.05;;;0.50;;
45039;SDS011;30778;53.574;7.770;2023-07-31T02:44:00;3.50;;;0.50;;
45039;SDS011;30778;53.574;7.770;2023-07-31T02:46:26;1.63;;;0.52;;
45039;SDS011;30778;53.574;7.770;2023-07-31T02:48:52;1.20;;;0.50;;
45039;SDS011;30778;53.574;7.770;2023-07-31T02:51:25;2.65;;;0.50;;
45039;SDS011;30778;53.574;7.770;2023-07-31T02:54:00;2.60;;;0.70;;
45039;SDS011;30778;53.574;7.770;2023-07-31T02:56:25;1.98;;;0.70;;
45039;SDS011;30778;53.574;7.770;2023-07-31T02:58:53;1.77;;;0.57;;
45039;SDS011;30778;53.574;7.770;2023-07-31T03:01:19;0.70;;;0.43;;
45039;SDS011;30778;53.574;7.770;2023-07-31T03:03:44;0.98;;;0.50;;
45039;SDS011;30778;53.574;7.770;2023-07-31T03:06:10;5.53;;;0.95;;
45039;SDS011;30778;53.574;7.770;2023-07-31T03:08:36;1.05;;;0.40;;
45039;SDS011;30778;53.574;7.770;2023-07-31T03:11:10;1.20;;;0.65;;
45039;SDS011;30778;53.574;7.770;2023-07-31T03:13:38;1.80;;;0.47;;
45039;SDS011;30778;53.574;7.770;2023-07-31T03:16:13;1.38;;;0.52;;
45039;SDS011;30778;53.574;7.770;2023-07-31T03:18:39;1.30;;;0.52;;
45039;SDS011;30778;53.574;7.770;2023-07-31T03:21:07;1.48;;;0.50;;
45039;SDS011;30778;53.574;7.770;2023-07-31T03:23:32;1.50;;;0.45;;
45039;SDS011;30778;53.574;7.770;2023-07-31T03:26:01;0.90;;;0.40;;
45039;SDS011;30778;53.574;7.770;2023-07-31T03:28:30;2.63;;;0.70;;
45039;SDS011;30778;53.574;7.770;2023-07-31T03:30:56;1.60;;;0.43;;
45039;SDS011;30778;53.574;7.770;2023-07-31T03:33:23;0.90;;;0.50;;
45039;SDS011;30778;53.574;7.770;2023-07-31T03:35:49;0.82;;;0.40;;
45039;SDS011;30778;53.574;7.770;2023-07-31T03:38:22;1.27;;;0.45;;
45039;SDS011;30778;53.574;7.770;2023-07-31T03:40:48;2.15;;;0.45;;
45039;SDS011;30778;53.574;7.770;2023-07-31T03:43:18;1.38;;;0.40;;
45039;SDS011;30778;53.574;7.770;2023-07-31T03:45:43;1.30;;;0.40;;
45039;SDS011;30778;53.574;7.770;2023-07-31T03:48:10;1.83;;;0.47;;
45039;SDS011;30778;53.574;7.770;2023-07-31T03:50:35;0.65;;;0.20;;
45039;SDS011;30778;53.574;7.770;2023-07-31T03:53:02;1.02;;;0.30;;
45039;SDS011;30778;53.574;7.770;2023-07-31T03:55:27;1.50;;;0.80;;
45039;SDS011;30778;53.574;7.770;2023-07-31T03:57:58;0.63;;;0.20;;
45039;SDS011;30778;53.574;7.770;2023-07-31T04:00:26;1.50;;;0.50;;
45039;SDS011;30778;53.574;7.770;2023-07-31T04:02:52;1.42;;;0.50;;
45039;SDS011;30778;53.574;7.770;2023-07-31T04:05:18;1.10;;;0.35;;
45039;SDS011;30778;53.574;7.770;2023-07-31T04:07:43;0.85;;;0.30;;
45039;SDS011;30778;53.574;7.770;2023-07-31T04:10:09;0.60;;;0.25;;
45039;SDS011;30778;53.574;7.770;2023-07-31T04:12:34;2.60;;;0.35;;
45039;SDS011;30778;53.574;7.770;2023-07-31T04:15:02;0.65;;;0.20;;
45039;SDS011;30778;53.574;7.770;2023-07-31T04:17:28;0.52;;;0.20;;
45039;SDS011;30778;53.574;7.770;2023-07-31T04:19:56;2.63;;;0.30;;
45039;SDS011;30778;53.574;7.770;2023-07-31T04:22:23;0.85;;;0.10;;
45039;SDS011;30778;53.574;7.770;2023-07-31T04:24:49;0.60;;;0.20;;
45039;SDS011;30778;53.574;7.770;2023-07-31T04:27:14;1.67;;;0.20;;
45039;SDS011;30778;53.574;7.770;2023-07-31T04:29:42;1.08;;;0.20;;
45039;SDS011;30778;53.574;7.770;2023-07-31T04:32:09;0.30;;;0.10;;
45039;SDS011;30778;53.574;7.770;2023-07-31T04:34:37;1.15;;;0.20;;
45039;SDS011;30778;53.574;7.770;2023-07-31T04:37:05;0.45;;;0.20;;
45039;SDS011;30778;53.574;7.770;2023-07-31T04:39:33;0.70;;;0.30;;
45039;SDS011;30778;53.574;7.770;2023-07-31T04:41:58;0.95;;;0.20;;
45039;SDS011;30778;53.574;7.770;2023-07-31T04:44:24;1.15;;;0.38;;
45039;SDS011;30778;53.574;7.770;2023-07-31T04:46:50;0.73;;;0.20;;
45039;SDS011;30778;53.574;7.770;2023-07-31T04:49:19;0.73;;;0.40;;
45039;SDS011;30778;53.574;7.770;2023-07-31T04:51:47;0.65;;;0.20;;
45039;SDS011;30778;53.574;7.770;2023-07-31T04:54:13;0.60;;;0.40;;
45039;SDS011;30778;53.574;7.770;2023-07-31T04:56:43;0.75;;;0.20;;
45039;SDS011;30778;53.574;7.770;2023-07-31T04:59:09;0.65;;;0.30;;
45039;SDS011;30778;53.574;7.770;2023-07-31T05:01:35;0.60;;;0.20;;
45039;SDS011;30778;53.574;7.770;2023-07-31T05:04:00;0.50;;;0.28;;
45039;SDS011;30778;53.574;7.770;2023-07-31T05:06:30;0.60;;;0.15;;
45039;SDS011;30778;53.574;7.770;2023-07-31T05:08:56;0.50;;;0.30;;
45039;SDS011;30778;53.574;7.770;2023-07-31T05:11:37;0.98;;;0.15;;
45039;SDS011;30778;53.574;7.770;2023-07-31T05:14:03;0.75;;;0.20;;
45039;SDS011;30778;53.574;7.770;2023-07-31T05:16:28;0.77;;;0.28;;
45039;SDS011;30778;53.574;7.770;2023-07-31T05:18:56;0.52;;;0.20;;
45039;SDS011;30778;53.574;7.770;2023-07-31T05:21:27;2.85;;;0.35;;
45039;SDS011;30778;53.574;7.770;2023-07-31T05:23:55;2.42;;;0.20;;
45039;SDS011;30778;53.574;7.770;2023-07-31T05:26:20;0.65;;;0.40;;
45039;SDS011;30778;53.574;7.770;2023-07-31T05:28:46;1.73;;;0.30;;
45039;SDS011;30778;53.574;7.770;2023-07-31T05:31:14;0.60;;;0.25;;
45039;SDS011;30778;53.574;7.770;2023-07-31T05:33:45;0.30;;;0.20;;
45039;SDS011;30778;53.574;7.770;2023-07-31T05:36:13;1.58;;;0.30;;
45039;SDS011;30778;53.574;7.770;2023-07-31T05:38:43;0.90;;;0.10;;
45039;SDS011;30778;53.574;7.770;2023-07-31T05:41:12;0.52;;;0.17;;
45039;SDS011;30778;53.574;7.770;2023-07-31T05:43:43;0.55;;;0.10;;
45039;SDS011;30778;53.574;7.770;2023-07-31T05:46:09;0.40;;;0.30;;
45039;SDS011;30778;53.574;7.770;2023-07-31T05:48:37;0.55;;;0.20;;
45039;SDS011;30778;53.574;7.770;2023-07-31T05:51:03;2.00;;;0.38;;
45039;SDS011;30778;53.574;7.770;2023-07-31T05:53:28;0.63;;;0.40;;
45039;SDS011;30778;53.574;7.770;2023-07-31T05:55:54;1.33;;;0.22;;
45039;SDS011;30778;53.574;7.770;2023-07-31T05:58:19;5.13;;;0.65;;
45039;SDS011;30778;53.574;7.770;2023-07-31T06:00:45;0.75;;;0.20;;
45039;SDS011;30778;53.574;7.770;2023-07-31T06:03:11;0.52;;;0.20;;
45039;SDS011;30778;53.574;7.770;2023-07-31T06:05:37;0.43;;;0.10;;
45039;SDS011;30778;53.574;7.770;2023-07-31T06:08:02;1.92;;;0.32;;
45039;SDS011;30778;53.574;7.770;2023-07-31T06:10:28;0.88;;;0.20;;
45039;SDS011;30778;53.574;7.770;2023-07-31T06:12:53;2.97;;;0.20;;
45039;SDS011;30778;53.574;7.770;2023-07-31T06:15:19;0.80;;;0.20;;
45039;SDS011;30778;53.574;7.770;2023-07-31T06:17:45;0.93;;;0.20;;
45039;SDS011;30778;53.574;7.770;2023-07-31T06:20:10;2.13;;;0.20;;
45039;SDS011;30778;53.574;7.770;2023-07-31T06:22:36;0.52;;;0.20;;
45039;SDS011;30778;53.574;7.770;2023-07-31T06:25:01;0.40;;;0.20;;
45039;SDS011;30778;53.574;7.770;2023-07-31T06:27:27;0.40;;;0.10;;
45039;SDS011;30778;53.574;7.770;2023-07-31T06:29:52;0.32;;;0.10;;
45039;SDS011;30778;53.574;7.770;2023-07-31T06:32:18;0.45;;;0.10;;
45039;SDS011;30778;53.574;7.770;2023-07-31T06:34:44;1.15;;;0.25;;
45039;SDS011;30778;53.574;7.770;2023-07-31T06:37:09;0.90;;;0.10;;
45039;SDS011;30778;53.574;7.770;2023-07-31T06:39:35;1.58;;;0.10;;
45039;SDS011;30778;53.574;7.770;2023-07-31T06:42:00;0.60;;;0.10;;
45039;SDS011;30778;53.574;7.770;2023-07-31T06:44:26;0.40;;;0.13;;
45039;SDS011;30778;53.574;7.770;2023-07-31T06:46:52;0.93;;;0.20;;
45039;SDS011;30778;53.574;7.770;2023-07-31T06:49:18;1.58;;;0.20;;
45039;SDS011;30778;53.574;7.770;2023-07-31T06:51:43;0.90;;;0.10;;
45039;SDS011;30778;53.574;7.770;2023-07-31T06:54:09;0.50;;;0.10;;
45039;SDS011;30778;53.574;7.770;2023-07-31T06:56:34;0.63;;;0.10;;
45039;SDS011;30778;53.574;7.770;2023-07-31T06:59:00;0.65;;;0.10;;
45039;SDS011;30778;53.574;7.770;2023-07-31T07:01:25;0.30;;;0.25;;
45039;SDS011;30778;53.574;7.770;2023-07-31T07:03:52;0.93;;;0.10;;
45039;SDS011;30778;53.574;7.770;2023-07-31T07:06:18;1.80;;;0.10;;
45039;SDS011;30778;53.574;7.770;2023-07-31T07:08:44;0.85;;;0.10;;
45039;SDS011;30778;53.574;7.770;2023-07-31T07:11:10;0.20;;;0.10;;
45039;SDS011;30778;53.574;7.770;2023-07-31T07:13:35;0.45;;;0.00;;
45039;SDS011;30778;53.574;7.770;2023-07-31T07:16:01;1.10;;;0.17;;
45039;SDS011;30778;53.574;7.770;2023-07-31T07:18:26;0.38;;;0.20;;
45039;SDS011;30778;53.574;7.770;2023-07-31T07:20:52;0.32;;;0.10;;
45039;SDS011;30778;53.574;7.770;2023-07-31T07:23:20;0.98;;;0.10;;
45039;SDS011;30778;53.574;7.770;2023-07-31T07:25:46;0.25;;;0.10;;
45039;SDS011;30778;53.574;7.770;2023-07-31T07:28:12;0.32;;;0.10;;
45039;SDS011;30778;53.574;7.770;2023-07-31T07:30:38;1.52;;;0.20;;
45039;SDS011;30778;53.574;7.770;2023-07-31T07:33:04;1.13;;;0.15;;
45039;SDS011;30778;53.574;7.770;2023-07-31T07:35:30;1.25;;;0.10;;
45039;SDS011;30778;53.574;7.770;2023-07-31T07:37:58;0.25;;;0.10;;
45039;SDS011;30778;53.574;7.770;2023-07-31T07:40:23;1.88;;;0.00;;
45039;SDS011;30778;53.574;7.770;2023-07-31T07:42:49;0.25;;;0.00;;
45039;SDS011;30778;53.574;7.770;2023-07-31T07:45:15;0.30;;;0.20;;
45039;SDS011;30778;53.574;7.770;2023-07-31T07:47:41;0.30;;;0.05;;
45039;SDS011;30778;53.574;7.770;2023-07-31T07:50:06;0.30;;;0.03;;
45039;SDS011;30778;53.574;7.770;2023-07-31T07:52:33;0.80;;;0.10;;
45039;SDS011;30778;53.574;7.770;2023-07-31T07:54:58;0.30;;;0.10;;
45039;SDS011;30778;53.574;7.770;2023-07-31T07:57:25;1.90;;;0.10;;
45039;SDS011;30778;53.574;7.770;2023-07-31T07:59:51;0.40;;;0.10;;
45039;SDS011;30778;53.574;7.770;2023-07-31T08:02:16;0.30;;;0.08;;
45039;SDS011;30778;53.574;7.770;2023-07-31T08:04:41;0.17;;;0.00;;
45039;SDS011;30778;53.574;7.770;2023-07-31T08:07:07;0.75;;;0.20;;
45039;SDS011;30778;53.574;7.770;2023-07-31T08:09:32;1.75;;;0.10;;
45039;SDS011;30778;53.574;7.770;2023-07-31T08:11:58;0.68;;;0.10;;
45039;SDS011;30778;53.574;7.770;2023-07-31T08:14:27;2.10;;;0.65;;
45039;SDS011;30778;53.574;7.770;2023-07-31T08:16:53;0.57;;;0.10;;
45039;SDS011;30778;53.574;7.770;2023-07-31T08:19:18;0.55;;;0.20;;
45039;SDS011;30778;53.574;7.770;2023-07-31T08:21:44;0.82;;;0.20;;
45039;SDS011;30778;53.574;7.770;2023-07-31T08:24:09;1.60;;;0.57;;
45039;SDS011;30778;53.574;7.770;2023-07-31T08:26:35;0.40;;;0.10;;
45039;SDS011;30778;53.574;7.770;2023-07-31T08:29:00;2.60;;;0.43;;
45039;SDS011;30778;53.574;7.770;2023-07-31T08:31:26;0.93;;;0.10;;
45039;SDS011;30778;53.574;7.770;2023-07-31T08:33:52;1.88;;;0.30;;
45039;SDS011;30778;53.574;7.770;2023-07-31T08:36:17;0.38;;;0.10;;
45039;SDS011;30778;53.574;7.770;2023-07-31T08:38:44;1.05;;;0.13;;
45039;SDS011;30778;53.574;7.770;2023-07-31T08:41:10;1.25;;;0.22;;
45039;SDS011;30778;53.574;7.770;2023-07-31T08:43:36;1.05;;;0.10;;
45039;SDS011;30778;53.574;7.770;2023-07-31T08:46:03;0.98;;;0.10;;
45039;SDS011;30778;53.574;7.770;2023-07-31T08:48:28;4.55;;;0.57;;
45039;SDS011;30778;53.574;7.770;2023-07-31T08:50:57;1.70;;;0.30;;
45039;SDS011;30778;53.574;7.770;2023-07-31T08:53:22;0.98;;;0.20;;
45039;SDS011;30778;53.574;7.770;2023-07-31T08:55:48;1.40;;;0.20;;
45039;SDS011;30778;53.574;7.770;2023-07-31T08:58:14;1.60;;;0.55;;
45039;SDS011;30778;53.574;7.770;2023-07-31T09:00:41;2.47;;;0.20;;
45039;SDS011;30778;53.574;7.770;2023-07-31T09:03:11;2.83;;;0.47;;
45039;SDS011;30778;53.574;7.770;2023-07-31T09:05:41;1.63;;;0.45;;
45039;SDS011;30778;53.574;7.770;2023-07-31T09:08:09;2.78;;;0.20;;
45039;SDS011;30778;53.574;7.770;2023-07-31T09:10:43;5.97;;;1.23;;
45039;SDS011;30778;53.574;7.770;2023-07-31T09:13:13;0.98;;;0.30;;
45039;SDS011;30778;53.574;7.770;2023-07-31T09:15:39;1.90;;;0.35;;
45039;SDS011;30778;53.574;7.770;2023-07-31T09:18:09;1.95;;;0.65;;
45039;SDS011;30778;53.574;7.770;2023-07-31T09:20:35;3.17;;;0.30;;
45039;SDS011;30778;53.574;7.770;2023-07-31T09:23:08;2.13;;;0.30;;
45039;SDS011;30778;53.574;7.770;2023-07-31T09:25:35;1.45;;;0.20;;
45039;SDS011;30778;53.574;7.770;2023-07-31T09:28:02;2.13;;;0.40;;
45039;SDS011;30778;53.574;7.770;2023-07-31T09:30:30;0.75;;;0.20;;
45039;SDS011;30778;53.574;7.770;2023-07-31T09:33:05;1.67;;;0.10;;
45039;SDS011;30778;53.574;7.770;2023-07-31T09:35:35;0.63;;;0.10;;
45039;SDS011;30778;53.574;7.770;2023-07-31T09:38:10;0.63;;;0.17;;
45039;SDS011;30778;53.574;7.770;2023-07-31T09:40:38;1.23;;;0.52;;
45039;SDS011;30778;53.574;7.770;2023-07-31T09:43:09;3.10;;;0.30;;
45039;SDS011;30778;53.574;7.770;2023-07-31T09:45:38;2.65;;;0.25;;
45039;SDS011;30778;53.574;7.770;2023-07-31T09:48:15;2.03;;;0.25;;
45039;SDS011;30778;53.574;7.770;2023-07-31T09:50:43;0.45;;;0.13;;
45039;SDS011;30778;53.574;7.770;2023-07-31T09:53:10;1.10;;;0.25;;
45039;SDS011;30778;53.574;7.770;2023-07-31T09:55:36;2.05;;;0.20;;
45039;SDS011;30778;53.574;7.770;2023-07-31T09:58:04;4.20;;;0.52;;
45039;SDS011;30778;53.574;7.770;2023-07-31T10:00:30;2.08;;;0.45;;
45039;SDS011;30778;53.574;7.770;2023-07-31T10:03:00;1.35;;;0.40;;
45039;SDS011;30778;53.574;7.770;2023-07-31T10:05:34;1.25;;;0.30;;
45039;SDS011;30778;53.574;7.770;2023-07-31T10:08:01;0.90;;;0.20;;
45039;SDS011;30778;53.574;7.770;2023-07-31T10:10:26;1.02;;;0.30;;
45039;SDS011;30778;53.574;7.770;2023-07-31T10:12:53;3.10;;;0.85;;
45039;SDS011;30778;53.574;7.770;2023-07-31T10:15:19;19.70;;;3.80;;
45039;SDS011;30778;53.574;7.770;2023-07-31T10:17:48;2.10;;;0.55;;
45039;SDS011;30778;53.574;7.770;2023-07-31T10:20:15;3.22;;;0.85;;
45039;SDS011;30778;53.574;7.770;2023-07-31T10:22:46;1.95;;;1.15;;
45039;SDS011;30778;53.574;7.770;2023-07-31T10:25:13;6.88;;;1.00;;
45039;SDS011;30778;53.574;7.770;2023-07-31T10:27:41;2.30;;;0.88;;
45039;SDS011;30778;53.574;7.770;2023-07-31T10:30:16;2.35;;;1.35;;
45039;SDS011;30778;53.574;7.770;2023-07-31T10:32:43;2.53;;;1.02;;
45039;SDS011;30778;53.574;7.770;2023-07-31T10:35:10;3.85;;;1.45;;
45039;SDS011;30778;53.574;7.770;2023-07-31T10:37:37;2.00;;;0.98;;
45039;SDS011;30778;53.574;7.770;2023-07-31T10:40:13;2.63;;;1.20;;
45039;SDS011;30778;53.574;7.770;2023-07-31T10:45:10;2.15;;;1.30;;
45039;SDS011;30778;53.574;7.770;2023-07-31T10:47:47;1.52;;;0.70;;
45039;SDS011;30778;53.574;7.770;2023-07-31T10:52:49;2.05;;;0.73;;
45039;SDS011;30778;53.574;7.770;2023-07-31T10:55:24;4.05;;;1.20;;
45039;SDS011;30778;53.574;7.770;2023-07-31T10:58:05;1.48;;;0.90;;
45039;SDS011;30778;53.574;7.770;2023-07-31T11:00:41;2.70;;;1.23;;
45039;SDS011;30778;53.574;7.770;2023-07-31T11:08:15;3.75;;;0.90;;
45039;SDS011;30778;53.574;7.770;2023-07-31T11:10:45;2.63;;;0.93;;
45039;SDS011;30778;53.574;7.770;2023-07-31T11:13:12;2.35;;;1.02;;
45039;SDS011;30778;53.574;7.770;2023-07-31T11:15:38;8.23;;;0.77;;
45039;SDS011;30778;53.574;7.770;2023-07-31T11:18:04;1.65;;;0.63;;
45039;SDS011;30778;53.574;7.770;2023-07-31T11:20:34;1.80;;;0.60;;
45039;SDS011;30778;53.574;7.770;2023-07-31T11:23:01;1.50;;;0.73;;
45039;SDS011;30778;53.574;7.770;2023-07-31T11:25:37;1.75;;;0.82;;
45039;SDS011;30778;53.574;7.770;2023-07-31T11:28:07;2.03;;;0.73;;
45039;SDS011;30778;53.574;7.770;2023-07-31T11:30:41;5.07;;;0.43;;
45039;SDS011;30778;53.574;7.770;2023-07-31T11:33:08;1.08;;;0.40;;
45039;SDS011;30778;53.574;7.770;2023-07-31T11:35:43;0.85;;;0.10;;
45039;SDS011;30778;53.574;7.770;2023-07-31T11:43:45;0.63;;;0.28;;
45039;SDS011;30778;53.574;7.770;2023-07-31T11:46:11;1.75;;;0.40;;
45039;SDS011;30778;53.574;7.770;2023-07-31T11:48:40;1.58;;;0.20;;
45039;SDS011;30778;53.574;7.770;2023-07-31T11:51:06;0.20;;;0.10;;
45039;SDS011;30778;53.574;7.770;2023-07-31T11:56:03;4.28;;;1.23;;
45039;SDS011;30778;53.574;7.770;2023-07-31T11:58:31;1.05;;;0.13;;
45039;SDS011;30778;53.574;7.770;2023-07-31T12:00:57;2.20;;;0.35;;
45039;SDS011;30778;53.574;7.770;2023-07-31T12:03:23;0.30;;;0.10;;
45039;SDS011;30778;53.574;7.770;2023-07-31T12:05:49;0.63;;;0.30;;
45039;SDS011;30778;53.574;7.770;2023-07-31T12:08:15;0.50;;;0.10;;
45039;SDS011;30778;53.574;7.770;2023-07-31T12:10:42;0.50;;;0.10;;
45039;SDS011;30778;53.574;7.770;2023-07-31T12:13:10;1.98;;;0.20;;
45039;SDS011;30778;53.574;7.770;2023-07-31T12:15:45;5.28;;;0.20;;
45039;SDS011;30778;53.574;7.770;2023-07-31T12:18:12;2.95;;;0.00;;
45039;SDS011;30778;53.574;7.770;2023-07-31T12:20:46;0.63;;;0.20;;
45039;SDS011;30778;53.574;7.770;2023-07-31T12:23:13;1.25;;;0.10;;
45039;SDS011;30778;53.574;7.770;2023-07-31T12:25:40;2.33;;;0.40;;
45039;SDS011;30778;53.574;7.770;2023-07-31T12:28:06;0.98;;;0.10;;
45039;SDS011;30778;53.574;7.770;2023-07-31T12:30:36;1.20;;;0.10;;
45039;SDS011;30778;53.574;7.770;2023-07-31T12:33:12;0.32;;;0.10;;
45039;SDS011;30778;53.574;7.770;2023-07-31T12:35:46;1.10;;;0.10;;
45039;SDS011;30778;53.574;7.770;2023-07-31T12:38:13;1.85;;;0.10;;
45039;SDS011;30778;53.574;7.770;2023-07-31T12:40:39;0.93;;;0.45;;
45039;SDS011;30778;53.574;7.770;2023-07-31T12:43:05;0.15;;;0.00;;
45039;SDS011;30778;53.574;7.770;2023-07-31T12:45:31;0.50;;;0.10;;
45039;SDS011;30778;53.574;7.770;2023-07-31T12:48:01;0.75;;;0.10;;
45039;SDS011;30778;53.574;7.770;2023-07-31T12:50:26;1.77;;;0.10;;
45039;SDS011;30778;53.574;7.770;2023-07-31T12:52:53;1.95;;;0.43;;
45039;SDS011;30778;53.574;7.770;2023-07-31T12:55:20;0.15;;;0.00;;
45039;SDS011;30778;53.574;7.770;2023-07-31T12:57:46;1.15;;;0.10;;
45039;SDS011;30778;53.574;7.770;2023-07-31T13:00:12;0.45;;;0.10;;
45039;SDS011;30778;53.574;7.770;2023-07-31T13:02:38;0.82;;;0.00;;
45039;SDS011;30778;53.574;7.770;2023-07-31T13:05:03;0.52;;;0.10;;
45039;SDS011;30778;53.574;7.770;2023-07-31T13:07:31;0.68;;;0.20;;
45039;SDS011;30778;53.574;7.770;2023-07-31T13:09:57;0.32;;;0.00;;
45039;SDS011;30778;53.574;7.770;2023-07-31T13:12:23;0.28;;;0.00;;
45039;SDS011;30778;53.574;7.770;2023-07-31T13:14:48;0.10;;;0.00;;
45039;SDS011;30778;53.574;7.770;2023-07-31T13:17:15;0.90;;;0.08;;
45039;SDS011;30778;53.574;7.770;2023-07-31T13:19:41;0.10;;;0.00;;
45039;SDS011;30778;53.574;7.770;2023-07-31T13:22:07;0.10;;;0.00;;
45039;SDS011;30778;53.574;7.770;2023-07-31T13:24:33;1.30;;;0.00;;
45039;SDS011;30778;53.574;7.770;2023-07-31T13:27:00;1.75;;;0.70;;
45039;SDS011;30778;53.574;7.770;2023-07-31T13:29:28;0.28;;;0.00;;
45039;SDS011;30778;53.574;7.770;2023-07-31T13:31:55;0.25;;;0.00;;
45039;SDS011;30778;53.574;7.770;2023-07-31T13:34:20;0.20;;;0.00;;
45039;SDS011;30778;53.574;7.770;2023-07-31T13:36:46;0.75;;;0.20;;
45039;SDS011;30778;53.574;7.770;2023-07-31T13:39:12;0.40;;;0.00;;
45039;SDS011;30778;53.574;7.770;2023-07-31T13:41:37;2.30;;;0.10;;
45039;SDS011;30778;53.574;7.770;2023-07-31T13:44:03;0.10;;;0.00;;
45039;SDS011;30778;53.574;7.770;2023-07-31T13:46:28;1.35;;;0.10;;
45039;SDS011;30778;53.574;7.770;2023-07-31T13:48:54;0.47;;;0.10;;
45039;SDS011;30778;53.574;7.770;2023-07-31T13:51:21;0.85;;;0.10;;
45039;SDS011;30778;53.574;7.770;2023-07-31T13:53:47;0.90;;;0.10;;
45039;SDS011;30778;53.574;7.770;2023-07-31T13:56:15;0.32;;;0.10;;
45039;SDS011;30778;53.574;7.770;2023-07-31T13:58:40;0.35;;;0.25;;
45039;SDS011;30778;53.574;7.770;2023-07-31T14:01:06;0.60;;;0.10;;
45039;SDS011;30778;53.574;7.770;2023-07-31T14:03:31;0.38;;;0.10;;
45039;SDS011;30778;53.574;7.770;2023-07-31T14:05:57;0.30;;;0.08;;
45039;SDS011;30778;53.574;7.770;2023-07-31T14:08:22;0.80;;;0.00;;
45039;SDS011;30778;53.574;7.770;2023-07-31T14:10:48;0.03;;;0.00;;
45039;SDS011;30778;53.574;7.770;2023-07-31T14:13:13;3.08;;;0.05;;
45039;SDS011;30778;53.574;7.770;2023-07-31T14:15:41;0.90;;;0.08;;
45039;SDS011;30778;53.574;7.770;2023-07-31T14:18:07;0.17;;;0.10;;
45039;SDS011;30778;53.574;7.770;2023-07-31T14:20:33;0.43;;;0.10;;
45039;SDS011;30778;53.574;7.770;2023-07-31T14:22:58;0.20;;;0.05;;
45039;SDS011;30778;53.574;7.770;2023-07-31T14:25:24;0.65;;;0.17;;
45039;SDS011;30778;53.574;7.770;2023-07-31T14:27:50;0.85;;;0.10;;
45039;SDS011;30778;53.574;7.770;2023-07-31T14:30:15;0.60;;;0.17;;
45039;SDS011;30778;53.574;7.770;2023-07-31T14:32:42;0.77;;;0.10;;
45039;SDS011;30778;53.574;7.770;2023-07-31T14:35:07;0.20;;;0.10;;
45039;SDS011;30778;53.574;7.770;2023-07-31T14:37:36;0.70;;;0.10;;
45039;SDS011;30778;53.574;7.770;2023-07-31T14:40:07;3.88;;;0.20;;
45039;SDS011;30778;53.574;7.770;2023-07-31T14:42:34;0.30;;;0.10;;
45039;SDS011;30778;53.574;7.770;2023-07-31T14:45:02;3.05;;;0.20;;
45039;SDS011;30778;53.574;7.770;2023-07-31T14:47:28;0.15;;;0.10;;
45039;SDS011;30778;53.574;7.770;2023-07-31T14:49:56;0.63;;;0.10;;
45039;SDS011;30778;53.574;7.770;2023-07-31T14:52:21;1.35;;;0.10;;
45039;SDS011;30778;53.574;7.770;2023-07-31T14:54:47;2.15;;;0.10;;
45039;SDS011;30778;53.574;7.770;2023-07-31T14:57:12;3.10;;;0.17;;
45039;SDS011;30778;53.574;7.770;2023-07-31T14:59:38;0.80;;;0.15;;
45039;SDS011;30778;53.574;7.770;2023-07-31T15:02:04;2.40;;;0.17;;
45039;SDS011;30778;53.574;7.770;2023-07-31T15:04:30;0.40;;;0.20;;
45039;SDS011;30778;53.574;7.770;2023-07-31T15:06:55;0.80;;;0.38;;
45039;SDS011;30778;53.574;7.770;2023-07-31T15:09:21;1.85;;;0.30;;
45039;SDS011;30778;53.574;7.770;2023-07-31T15:11:46;2.88;;;0.30;;